sensor_id;sensor_type;location;lat;lon;timestamp;temperature;humidity
25871;DHT22;13689;48.590;7.752;2023-12-20T00:00:05;6.10;99.90
25871;DHT22;13689;48.590;7.752;2023-12-20T00:02:31;6.10;99.90
25871;DHT22;13689;48.590;7.752;2023-12-20T00:04:57;6.10;99.90
25871;DHT22;13689;48.590;7.752;2023-12-20T00:07:22;6.10;99.90
25871;DHT22;13689;48.590;7.752;2023-12-20T00:09:48;6.20;99.90
25871;DHT22;13689;48.590;7.752;2023-12-20T00:12:13;6.10;99.90
25871;DHT22;13689;48.590;7.752;2023-12-20T00:14:39;6.10;99.90
25871;DHT22;13689;48.590;7.752;2023-12-20T00:17:05;6.10;99.90
25871;DHT22;13689;48.590;7.752;2023-12-20T00:19:30;6.10;99.90
25871;DHT22;13689;48.590;7.752;2023-12-20T00:21:56;6.10;99.90
25871;DHT22;13689;48.590;7.752;2023-12-20T00:24:21;6.10;99.90
25871;DHT22;13689;48.590;7.752;2023-12-20T00:26:47;6.10;99.90
25871;DHT22;13689;48.590;7.752;2023-12-20T00:29:12;6.10;99.90
25871;DHT22;13689;48.590;7.752;2023-12-20T00:31:38;6.10;99.90
25871;DHT22;13689;48.590;7.752;2023-12-20T00:34:04;6.10;99.90
25871;DHT22;13689;48.590;7.752;2023-12-20T00:36:29;6.10;99.90
25871;DHT22;13689;48.590;7.752;2023-12-20T00:38:55;6.10;99.90
25871;DHT22;13689;48.590;7.752;2023-12-20T00:41:20;6.10;99.90
25871;DHT22;13689;48.590;7.752;2023-12-20T00:43:46;6.20;99.90
25871;DHT22;13689;48.590;7.752;2023-12-20T00:46:12;6.10;99.90
25871;DHT22;13689;48.590;7.752;2023-12-20T00:48:37;6.10;99.90
25871;DHT22;13689;48.590;7.752;2023-12-20T00:51:03;6.20;99.90
25871;DHT22;13689;48.590;7.752;2023-12-20T00:53:29;6.20;99.90
25871;DHT22;13689;48.590;7.752;2023-12-20T00:55:54;6.10;99.90
25871;DHT22;13689;48.590;7.752;2023-12-20T00:58:20;6.10;99.90
25871;DHT22;13689;48.590;7.752;2023-12-20T01:00:46;6.10;99.90
25871;DHT22;13689;48.590;7.752;2023-12-20T01:03:12;6.20;99.90
25871;DHT22;13689;48.590;7.752;2023-12-20T01:05:37;6.20;99.90
25871;DHT22;13689;48.590;7.752;2023-12-20T01:08:03;6.10;99.90
25871;DHT22;13689;48.590;7.752;2023-12-20T01:10:29;6.10;99.90
25871;DHT22;13689;48.590;7.752;2023-12-20T01:12:55;6.10;99.90
25871;DHT22;13689;48.590;7.752;2023-12-20T01:15:21;6.20;99.90
25871;DHT22;13689;48.590;7.752;2023-12-20T01:17:46;6.10;99.90
25871;DHT22;13689;48.590;7.752;2023-12-20T01:20:12;6.10;99.90
25871;DHT22;13689;48.590;7.752;2023-12-20T01:22:38;6.10;99.90
25871;DHT22;13689;48.590;7.752;2023-12-20T01:25:04;6.20;99.90
25871;DHT22;13689;48.590;7.752;2023-12-20T01:27:29;6.20;99.90
25871;DHT22;13689;48.590;7.752;2023-12-20T01:29:56;6.20;99.90
25871;DHT22;13689;48.590;7.752;2023-12-20T01:32:22;6.20;99.90
25871;DHT22;13689;48.590;7.752;2023-12-20T01:34:47;6.20;99.90
25871;DHT22;13689;48.590;7.752;2023-12-20T01:37:14;6.20;99.90
25871;DHT22;13689;48.590;7.752;2023-12-20T01:39:39;6.20;99.90
25871;DHT22;13689;48.590;7.752;2023-12-20T01:42:05;6.20;99.90
25871;DHT22;13689;48.590;7.752;2023-12-20T01:44:30;6.20;99.90
25871;DHT22;13689;48.590;7.752;2023-12-20T01:46:56;6.20;99.90
25871;DHT22;13689;48.590;7.752;2023-12-20T01:49:23;6.20;99.90
25871;DHT22;13689;48.590;7.752;2023-12-20T01:51:49;6.20;99.90
25871;DHT22;13689;48.590;7.752;2023-12-20T01:54:15;6.20;99.90
25871;DHT22;13689;48.590;7.752;2023-12-20T01:56:41;6.20;99.90
25871;DHT22;13689;48.590;7.752;2023-12-20T01:59:08;6.20;99.90
25871;DHT22;13689;48.590;7.752;2023-12-20T02:01:35;6.20;99.90
25871;DHT22;13689;48.590;7.752;2023-12-20T02:04:01;6.20;99.90
25871;DHT22;13689;48.590;7.752;2023-12-20T02:06:30;6.20;99.90
25871;DHT22;13689;48.590;7.752;2023-12-20T02:08:57;6.20;99.90
25871;DHT22;13689;48.590;7.752;2023-12-20T02:11:23;6.20;99.90
25871;DHT22;13689;48.590;7.752;2023-12-20T02:13:50;6.20;99.90
25871;DHT22;13689;48.590;7.752;2023-12-20T02:16:16;6.20;99.90
25871;DHT22;13689;48.590;7.752;2023-12-20T02:18:43;6.30;99.90
25871;DHT22;13689;48.590;7.752;2023-12-20T02:21:10;6.30;99.90
25871;DHT22;13689;48.590;7.752;2023-12-20T02:23:35;6.30;99.90
25871;DHT22;13689;48.590;7.752;2023-12-20T02:26:02;6.30;99.90
25871;DHT22;13689;48.590;7.752;2023-12-20T02:28:28;6.30;99.90
25871;DHT22;13689;48.590;7.752;2023-12-20T02:30:53;6.30;99.90
25871;DHT22;13689;48.590;7.752;2023-12-20T02:33:19;6.30;99.90
25871;DHT22;13689;48.590;7.752;2023-12-20T02:35:44;6.30;99.90
25871;DHT22;13689;48.590;7.752;2023-12-20T02:38:10;6.30;99.90
25871;DHT22;13689;48.590;7.752;2023-12-20T02:40:36;6.30;99.90
25871;DHT22;13689;48.590;7.752;2023-12-20T02:43:02;6.30;99.90
25871;DHT22;13689;48.590;7.752;2023-12-20T02:45:27;6.30;99.90
25871;DHT22;13689;48.590;7.752;2023-12-20T02:47:53;6.30;99.90
25871;DHT22;13689;48.590;7.752;2023-12-20T02:50:18;6.30;99.90
25871;DHT22;13689;48.590;7.752;2023-12-20T02:52:47;6.30;99.90
25871;DHT22;13689;48.590;7.752;2023-12-20T02:55:13;6.30;99.90
25871;DHT22;13689;48.590;7.752;2023-12-20T02:57:38;6.30;99.90
25871;DHT22;13689;48.590;7.752;2023-12-20T03:00:08;6.30;99.90
25871;DHT22;13689;48.590;7.752;2023-12-20T03:02:34;6.30;99.90
25871;DHT22;13689;48.590;7.752;2023-12-20T03:05:00;6.30;99.90
25871;DHT22;13689;48.590;7.752;2023-12-20T03:07:26;6.30;99.90
25871;DHT22;13689;48.590;7.752;2023-12-20T03:09:52;6.40;99.90
25871;DHT22;13689;48.590;7.752;2023-12-20T03:12:17;6.40;99.90
25871;DHT22;13689;48.590;7.752;2023-12-20T03:14:44;6.40;99.90
25871;DHT22;13689;48.590;7.752;2023-12-20T03:17:10;6.40;99.90
25871;DHT22;13689;48.590;7.752;2023-12-20T03:19:35;6.40;99.90
25871;DHT22;13689;48.590;7.752;2023-12-20T03:22:01;6.40;99.90
25871;DHT22;13689;48.590;7.752;2023-12-20T03:24:27;6.40;99.90
25871;DHT22;13689;48.590;7.752;2023-12-20T03:26:53;6.40;99.90
25871;DHT22;13689;48.590;7.752;2023-12-20T03:29:18;6.40;99.90
25871;DHT22;13689;48.590;7.752;2023-12-20T03:31:44;6.40;99.90
25871;DHT22;13689;48.590;7.752;2023-12-20T03:34:09;6.40;99.90
25871;DHT22;13689;48.590;7.752;2023-12-20T03:36:36;6.40;99.90
25871;DHT22;13689;48.590;7.752;2023-12-20T03:39:01;6.40;99.90
25871;DHT22;13689;48.590;7.752;2023-12-20T03:41:27;6.40;99.90
25871;DHT22;13689;48.590;7.752;2023-12-20T03:43:52;6.40;99.90
25871;DHT22;13689;48.590;7.752;2023-12-20T03:46:18;6.40;99.90
25871;DHT22;13689;48.590;7.752;2023-12-20T03:48:43;6.40;99.90
25871;DHT22;13689;48.590;7.752;2023-12-20T03:51:09;6.50;99.90
25871;DHT22;13689;48.590;7.752;2023-12-20T03:53:35;6.40;99.90
25871;DHT22;13689;48.590;7.752;2023-12-20T03:56:00;6.40;99.90
25871;DHT22;13689;48.590;7.752;2023-12-20T03:58:26;6.50;99.90
25871;DHT22;13689;48.590;7.752;2023-12-20T04:00:52;6.40;99.90
25871;DHT22;13689;48.590;7.752;2023-12-20T04:03:17;6.50;99.90
25871;DHT22;13689;48.590;7.752;2023-12-20T04:05:43;6.50;99.90
25871;DHT22;13689;48.590;7.752;2023-12-20T04:08:09;6.50;99.90
25871;DHT22;13689;48.590;7.752;2023-12-20T04:10:35;6.50;99.90
25871;DHT22;13689;48.590;7.752;2023-12-20T04:13:00;6.50;99.90
25871;DHT22;13689;48.590;7.752;2023-12-20T04:15:26;6.50;99.90
25871;DHT22;13689;48.590;7.752;2023-12-20T04:17:52;6.50;99.90
25871;DHT22;13689;48.590;7.752;2023-12-20T04:20:17;6.60;99.90
25871;DHT22;13689;48.590;7.752;2023-12-20T04:22:43;6.50;99.90
25871;DHT22;13689;48.590;7.752;2023-12-20T04:25:09;6.60;99.90
25871;DHT22;13689;48.590;7.752;2023-12-20T04:27:35;6.60;99.90
25871;DHT22;13689;48.590;7.752;2023-12-20T04:30:00;6.60;99.90
25871;DHT22;13689;48.590;7.752;2023-12-20T04:32:26;6.60;99.90
25871;DHT22;13689;48.590;7.752;2023-12-20T04:34:51;6.60;99.90
25871;DHT22;13689;48.590;7.752;2023-12-20T04:37:17;6.60;99.90
25871;DHT22;13689;48.590;7.752;2023-12-20T04:39:43;6.60;99.90
25871;DHT22;13689;48.590;7.752;2023-12-20T04:42:08;6.60;99.90
25871;DHT22;13689;48.590;7.752;2023-12-20T04:44:34;6.60;99.90
25871;DHT22;13689;48.590;7.752;2023-12-20T04:46:59;6.70;99.90
25871;DHT22;13689;48.590;7.752;2023-12-20T04:49:25;6.70;99.90
25871;DHT22;13689;48.590;7.752;2023-12-20T04:51:51;6.70;99.90
25871;DHT22;13689;48.590;7.752;2023-12-20T04:54:16;6.70;99.90
25871;DHT22;13689;48.590;7.752;2023-12-20T04:56:42;6.70;99.90
25871;DHT22;13689;48.590;7.752;2023-12-20T04:59:08;6.70;99.90
25871;DHT22;13689;48.590;7.752;2023-12-20T05:01:33;6.70;99.90
25871;DHT22;13689;48.590;7.752;2023-12-20T05:03:59;6.70;99.90
25871;DHT22;13689;48.590;7.752;2023-12-20T05:06:24;6.70;99.90
25871;DHT22;13689;48.590;7.752;2023-12-20T05:08:50;6.70;99.90
25871;DHT22;13689;48.590;7.752;2023-12-20T05:11:16;6.80;99.90
25871;DHT22;13689;48.590;7.752;2023-12-20T05:13:42;6.80;99.90
25871;DHT22;13689;48.590;7.752;2023-12-20T05:16:07;6.80;99.90
25871;DHT22;13689;48.590;7.752;2023-12-20T05:18:34;6.80;99.90
25871;DHT22;13689;48.590;7.752;2023-12-20T05:21:00;6.80;99.90
25871;DHT22;13689;48.590;7.752;2023-12-20T05:23:25;6.80;99.90
25871;DHT22;13689;48.590;7.752;2023-12-20T05:25:51;6.80;99.90
25871;DHT22;13689;48.590;7.752;2023-12-20T05:28:17;6.80;99.90
25871;DHT22;13689;48.590;7.752;2023-12-20T05:30:42;6.80;99.90
25871;DHT22;13689;48.590;7.752;2023-12-20T05:33:08;6.80;99.90
25871;DHT22;13689;48.590;7.752;2023-12-20T05:35:34;6.80;99.90
25871;DHT22;13689;48.590;7.752;2023-12-20T05:38:00;6.80;99.90
25871;DHT22;13689;48.590;7.752;2023-12-20T05:40:26;6.80;99.90
25871;DHT22;13689;48.590;7.752;2023-12-20T05:42:51;6.80;99.90
25871;DHT22;13689;48.590;7.752;2023-12-20T05:45:17;6.80;99.90
25871;DHT22;13689;48.590;7.752;2023-12-20T05:47:42;6.80;99.90
25871;DHT22;13689;48.590;7.752;2023-12-20T05:50:08;6.80;99.90
25871;DHT22;13689;48.590;7.752;2023-12-20T05:52:34;6.80;99.90
25871;DHT22;13689;48.590;7.752;2023-12-20T05:55:00;6.80;99.90
25871;DHT22;13689;48.590;7.752;2023-12-20T05:57:28;6.80;99.90
25871;DHT22;13689;48.590;7.752;2023-12-20T05:59:54;6.80;99.90
25871;DHT22;13689;48.590;7.752;2023-12-20T06:02:19;6.90;99.90
25871;DHT22;13689;48.590;7.752;2023-12-20T06:04:45;6.90;99.90
25871;DHT22;13689;48.590;7.752;2023-12-20T06:07:14;6.90;99.90
25871;DHT22;13689;48.590;7.752;2023-12-20T06:09:40;6.90;99.90
25871;DHT22;13689;48.590;7.752;2023-12-20T06:12:07;6.90;99.90
25871;DHT22;13689;48.590;7.752;2023-12-20T06:14:32;6.90;99.90
25871;DHT22;13689;48.590;7.752;2023-12-20T06:16:58;6.90;99.90
25871;DHT22;13689;48.590;7.752;2023-12-20T06:19:24;6.90;99.90
25871;DHT22;13689;48.590;7.752;2023-12-20T06:21:49;6.90;99.90
25871;DHT22;13689;48.590;7.752;2023-12-20T06:24:15;6.90;99.90
25871;DHT22;13689;48.590;7.752;2023-12-20T06:26:40;6.90;99.90
25871;DHT22;13689;48.590;7.752;2023-12-20T06:29:06;6.90;99.90
25871;DHT22;13689;48.590;7.752;2023-12-20T06:31:32;6.90;99.90
25871;DHT22;13689;48.590;7.752;2023-12-20T06:33:58;6.90;99.90
25871;DHT22;13689;48.590;7.752;2023-12-20T06:36:25;6.90;99.90
25871;DHT22;13689;48.590;7.752;2023-12-20T06:38:51;6.90;99.90
25871;DHT22;13689;48.590;7.752;2023-12-20T06:41:17;7.00;99.90
25871;DHT22;13689;48.590;7.752;2023-12-20T06:43:43;7.00;99.90
25871;DHT22;13689;48.590;7.752;2023-12-20T06:46:08;7.00;99.90
25871;DHT22;13689;48.590;7.752;2023-12-20T06:48:34;7.00;99.90
25871;DHT22;13689;48.590;7.752;2023-12-20T06:51:01;7.00;99.90
25871;DHT22;13689;48.590;7.752;2023-12-20T06:53:30;7.00;99.90
25871;DHT22;13689;48.590;7.752;2023-12-20T06:55:55;7.00;99.90
25871;DHT22;13689;48.590;7.752;2023-12-20T06:58:24;7.00;99.90
25871;DHT22;13689;48.590;7.752;2023-12-20T07:00:50;7.00;99.90
25871;DHT22;13689;48.590;7.752;2023-12-20T07:03:17;7.00;99.90
25871;DHT22;13689;48.590;7.752;2023-12-20T07:05:43;7.10;99.90
25871;DHT22;13689;48.590;7.752;2023-12-20T07:08:09;7.10;99.90
25871;DHT22;13689;48.590;7.752;2023-12-20T07:10:35;7.10;99.90
25871;DHT22;13689;48.590;7.752;2023-12-20T07:13:01;7.10;99.90
25871;DHT22;13689;48.590;7.752;2023-12-20T07:15:26;7.10;99.90
25871;DHT22;13689;48.590;7.752;2023-12-20T07:17:52;7.10;99.90
25871;DHT22;13689;48.590;7.752;2023-12-20T07:20:18;7.10;99.90
25871;DHT22;13689;48.590;7.752;2023-12-20T07:22:44;7.10;99.90
25871;DHT22;13689;48.590;7.752;2023-12-20T07:25:09;7.10;99.90
25871;DHT22;13689;48.590;7.752;2023-12-20T07:27:36;7.00;99.90
25871;DHT22;13689;48.590;7.752;2023-12-20T07:30:01;7.00;99.90
25871;DHT22;13689;48.590;7.752;2023-12-20T07:32:27;7.00;99.90
25871;DHT22;13689;48.590;7.752;2023-12-20T07:34:52;7.00;99.90
25871;DHT22;13689;48.590;7.752;2023-12-20T07:37:19;7.00;99.90
25871;DHT22;13689;48.590;7.752;2023-12-20T07:39:44;7.00;99.90
25871;DHT22;13689;48.590;7.752;2023-12-20T07:42:10;7.00;99.90
25871;DHT22;13689;48.590;7.752;2023-12-20T07:44:36;7.00;99.90
25871;DHT22;13689;48.590;7.752;2023-12-20T07:47:02;7.00;99.90
25871;DHT22;13689;48.590;7.752;2023-12-20T07:49:27;7.00;99.90
25871;DHT22;13689;48.590;7.752;2023-12-20T07:51:53;6.90;99.90
25871;DHT22;13689;48.590;7.752;2023-12-20T07:54:19;6.80;99.90
25871;DHT22;13689;48.590;7.752;2023-12-20T07:56:46;6.80;99.90
25871;DHT22;13689;48.590;7.752;2023-12-20T07:59:11;6.70;99.90
25871;DHT22;13689;48.590;7.752;2023-12-20T08:01:37;6.70;99.90
25871;DHT22;13689;48.590;7.752;2023-12-20T08:04:03;6.70;99.90
25871;DHT22;13689;48.590;7.752;2023-12-20T08:06:28;6.70;99.90
25871;DHT22;13689;48.590;7.752;2023-12-20T08:08:54;6.70;99.90
25871;DHT22;13689;48.590;7.752;2023-12-20T08:11:19;6.70;99.90
25871;DHT22;13689;48.590;7.752;2023-12-20T08:13:45;6.80;99.90
25871;DHT22;13689;48.590;7.752;2023-12-20T08:16:11;6.80;99.90
25871;DHT22;13689;48.590;7.752;2023-12-20T08:18:39;6.80;99.90
25871;DHT22;13689;48.590;7.752;2023-12-20T08:21:04;6.80;99.90
25871;DHT22;13689;48.590;7.752;2023-12-20T08:23:33;6.90;99.90
25871;DHT22;13689;48.590;7.752;2023-12-20T08:25:58;6.90;99.90
25871;DHT22;13689;48.590;7.752;2023-12-20T08:28:24;6.90;99.90
25871;DHT22;13689;48.590;7.752;2023-12-20T08:30:49;6.90;99.90
25871;DHT22;13689;48.590;7.752;2023-12-20T08:33:19;6.90;99.90
25871;DHT22;13689;48.590;7.752;2023-12-20T08:35:44;6.90;99.90
25871;DHT22;13689;48.590;7.752;2023-12-20T08:38:10;6.90;99.90
25871;DHT22;13689;48.590;7.752;2023-12-20T08:40:35;6.90;99.90
25871;DHT22;13689;48.590;7.752;2023-12-20T08:43:01;6.90;99.90
25871;DHT22;13689;48.590;7.752;2023-12-20T08:45:26;7.00;99.90
25871;DHT22;13689;48.590;7.752;2023-12-20T08:47:52;7.00;99.90
25871;DHT22;13689;48.590;7.752;2023-12-20T08:50:18;7.00;99.90
25871;DHT22;13689;48.590;7.752;2023-12-20T08:52:43;7.00;99.90
25871;DHT22;13689;48.590;7.752;2023-12-20T08:55:09;6.90;99.90
25871;DHT22;13689;48.590;7.752;2023-12-20T08:57:38;6.90;99.90
25871;DHT22;13689;48.590;7.752;2023-12-20T09:00:04;6.90;99.90
25871;DHT22;13689;48.590;7.752;2023-12-20T09:02:30;6.90;99.90
25871;DHT22;13689;48.590;7.752;2023-12-20T09:04:55;6.90;99.90
25871;DHT22;13689;48.590;7.752;2023-12-20T09:07:27;6.90;99.90
25871;DHT22;13689;48.590;7.752;2023-12-20T09:09:55;7.00;99.90
25871;DHT22;13689;48.590;7.752;2023-12-20T09:12:21;7.00;99.90
25871;DHT22;13689;48.590;7.752;2023-12-20T09:14:48;7.50;99.90
25871;DHT22;13689;48.590;7.752;2023-12-20T09:17:14;9.00;99.90
25871;DHT22;13689;48.590;7.752;2023-12-20T09:19:41;10.20;99.90
25871;DHT22;13689;48.590;7.752;2023-12-20T09:22:06;10.00;99.90
25871;DHT22;13689;48.590;7.752;2023-12-20T09:24:32;9.70;99.90
25871;DHT22;13689;48.590;7.752;2023-12-20T09:26:58;9.00;99.90
25871;DHT22;13689;48.590;7.752;2023-12-20T09:29:24;8.50;99.90
25871;DHT22;13689;48.590;7.752;2023-12-20T09:31:50;8.10;99.90
25871;DHT22;13689;48.590;7.752;2023-12-20T09:34:16;7.90;99.90
25871;DHT22;13689;48.590;7.752;2023-12-20T09:36:42;7.80;99.90
25871;DHT22;13689;48.590;7.752;2023-12-20T09:39:16;7.70;99.90
25871;DHT22;13689;48.590;7.752;2023-12-20T09:41:45;8.60;99.90
25871;DHT22;13689;48.590;7.752;2023-12-20T09:44:15;9.50;99.90
25871;DHT22;13689;48.590;7.752;2023-12-20T09:46:43;10.30;99.90
25871;DHT22;13689;48.590;7.752;2023-12-20T09:49:10;11.30;99.90
25871;DHT22;13689;48.590;7.752;2023-12-20T09:51:36;12.10;99.90
25871;DHT22;13689;48.590;7.752;2023-12-20T09:54:03;12.50;99.90
25871;DHT22;13689;48.590;7.752;2023-12-20T09:56:30;12.10;99.90
25871;DHT22;13689;48.590;7.752;2023-12-20T09:58:56;11.30;99.90
25871;DHT22;13689;48.590;7.752;2023-12-20T10:01:22;10.80;99.90
25871;DHT22;13689;48.590;7.752;2023-12-20T10:03:48;10.30;99.90
25871;DHT22;13689;48.590;7.752;2023-12-20T10:06:16;9.90;99.90
25871;DHT22;13689;48.590;7.752;2023-12-20T10:08:41;9.50;99.90
25871;DHT22;13689;48.590;7.752;2023-12-20T10:11:07;9.30;99.90
25871;DHT22;13689;48.590;7.752;2023-12-20T10:13:33;9.10;99.90
25871;DHT22;13689;48.590;7.752;2023-12-20T10:15:59;8.90;99.90
25871;DHT22;13689;48.590;7.752;2023-12-20T10:18:26;8.80;99.90
25871;DHT22;13689;48.590;7.752;2023-12-20T10:20:54;8.70;99.90
25871;DHT22;13689;48.590;7.752;2023-12-20T10:23:19;8.60;99.90
25871;DHT22;13689;48.590;7.752;2023-12-20T10:25:56;8.60;99.90
25871;DHT22;13689;48.590;7.752;2023-12-20T10:28:22;8.60;99.90
25871;DHT22;13689;48.590;7.752;2023-12-20T10:30:50;8.60;99.90
25871;DHT22;13689;48.590;7.752;2023-12-20T10:33:27;8.50;99.90
25871;DHT22;13689;48.590;7.752;2023-12-20T10:35:54;8.50;99.90
25871;DHT22;13689;48.590;7.752;2023-12-20T10:38:20;8.60;99.90
25871;DHT22;13689;48.590;7.752;2023-12-20T10:40:46;8.60;99.90
25871;DHT22;13689;48.590;7.752;2023-12-20T10:43:12;8.60;99.90
25871;DHT22;13689;48.590;7.752;2023-12-20T10:45:38;8.70;99.90
25871;DHT22;13689;48.590;7.752;2023-12-20T10:48:04;8.70;99.90
25871;DHT22;13689;48.590;7.752;2023-12-20T10:50:31;8.70;99.90
25871;DHT22;13689;48.590;7.752;2023-12-20T10:52:58;8.70;99.90
25871;DHT22;13689;48.590;7.752;2023-12-20T10:55:25;8.60;99.90
25871;DHT22;13689;48.590;7.752;2023-12-20T10:58:09;8.60;99.90
25871;DHT22;13689;48.590;7.752;2023-12-20T11:00:40;8.60;99.90
25871;DHT22;13689;48.590;7.752;2023-12-20T11:03:10;8.60;99.90
25871;DHT22;13689;48.590;7.752;2023-12-20T11:05:58;8.50;99.90
25871;DHT22;13689;48.590;7.752;2023-12-20T11:11:38;8.50;99.90
25871;DHT22;13689;48.590;7.752;2023-12-20T11:14:17;8.40;99.90
25871;DHT22;13689;48.590;7.752;2023-12-20T11:16:45;8.40;99.90
25871;DHT22;13689;48.590;7.752;2023-12-20T11:19:11;8.20;99.90
25871;DHT22;13689;48.590;7.752;2023-12-20T11:21:39;8.20;99.90
25871;DHT22;13689;48.590;7.752;2023-12-20T11:24:06;8.20;99.90
25871;DHT22;13689;48.590;7.752;2023-12-20T11:26:31;8.20;99.90
25871;DHT22;13689;48.590;7.752;2023-12-20T11:29:31;8.30;99.90
25871;DHT22;13689;48.590;7.752;2023-12-20T11:35:00;8.30;99.90
25871;DHT22;13689;48.590;7.752;2023-12-20T11:37:35;8.30;99.90
25871;DHT22;13689;48.590;7.752;2023-12-20T11:40:06;8.40;99.90
25871;DHT22;13689;48.590;7.752;2023-12-20T11:42:33;8.50;99.90
25871;DHT22;13689;48.590;7.752;2023-12-20T11:45:03;8.60;99.90
25871;DHT22;13689;48.590;7.752;2023-12-20T11:47:30;8.60;99.90
25871;DHT22;13689;48.590;7.752;2023-12-20T11:49:56;8.70;99.90
25871;DHT22;13689;48.590;7.752;2023-12-20T11:52:22;8.70;99.90
25871;DHT22;13689;48.590;7.752;2023-12-20T11:54:48;8.70;99.90
25871;DHT22;13689;48.590;7.752;2023-12-20T11:57:13;8.70;99.90
25871;DHT22;13689;48.590;7.752;2023-12-20T11:59:39;8.70;99.90
25871;DHT22;13689;48.590;7.752;2023-12-20T12:02:05;8.80;99.90
25871;DHT22;13689;48.590;7.752;2023-12-20T12:04:31;8.80;99.90
25871;DHT22;13689;48.590;7.752;2023-12-20T12:06:57;8.70;99.90
25871;DHT22;13689;48.590;7.752;2023-12-20T12:09:22;8.70;99.90
25871;DHT22;13689;48.590;7.752;2023-12-20T12:11:48;8.70;99.90
25871;DHT22;13689;48.590;7.752;2023-12-20T12:14:14;8.70;99.90
25871;DHT22;13689;48.590;7.752;2023-12-20T12:16:42;8.70;99.90
25871;DHT22;13689;48.590;7.752;2023-12-20T12:19:20;8.70;99.90
25871;DHT22;13689;48.590;7.752;2023-12-20T12:21:46;8.70;99.90
25871;DHT22;13689;48.590;7.752;2023-12-20T12:24:12;8.70;99.90
25871;DHT22;13689;48.590;7.752;2023-12-20T12:26:38;8.70;99.90
25871;DHT22;13689;48.590;7.752;2023-12-20T12:29:03;8.70;99.90
25871;DHT22;13689;48.590;7.752;2023-12-20T12:31:30;8.70;99.90
25871;DHT22;13689;48.590;7.752;2023-12-20T12:33:56;8.70;99.90
25871;DHT22;13689;48.590;7.752;2023-12-20T12:36:21;8.70;99.90
25871;DHT22;13689;48.590;7.752;2023-12-20T12:38:47;8.70;99.90
25871;DHT22;13689;48.590;7.752;2023-12-20T12:41:13;8.80;99.90
25871;DHT22;13689;48.590;7.752;2023-12-20T12:43:40;8.70;99.90
25871;DHT22;13689;48.590;7.752;2023-12-20T12:46:07;8.70;99.90
25871;DHT22;13689;48.590;7.752;2023-12-20T12:48:32;8.70;99.90
25871;DHT22;13689;48.590;7.752;2023-12-20T12:50:59;8.70;99.90
25871;DHT22;13689;48.590;7.752;2023-12-20T12:53:25;8.70;99.90
25871;DHT22;13689;48.590;7.752;2023-12-20T12:55:52;8.70;99.90
25871;DHT22;13689;48.590;7.752;2023-12-20T12:58:18;8.70;99.90
25871;DHT22;13689;48.590;7.752;2023-12-20T13:00:44;8.70;99.90
25871;DHT22;13689;48.590;7.752;2023-12-20T13:03:10;8.60;99.90
25871;DHT22;13689;48.590;7.752;2023-12-20T13:05:35;8.70;99.90
25871;DHT22;13689;48.590;7.752;2023-12-20T13:08:01;8.60;99.90
25871;DHT22;13689;48.590;7.752;2023-12-20T13:10:27;8.60;99.90
25871;DHT22;13689;48.590;7.752;2023-12-20T13:12:52;8.60;99.90
25871;DHT22;13689;48.590;7.752;2023-12-20T13:15:18;8.60;99.90
25871;DHT22;13689;48.590;7.752;2023-12-20T13:17:43;8.50;99.90
25871;DHT22;13689;48.590;7.752;2023-12-20T13:20:11;8.50;99.90
25871;DHT22;13689;48.590;7.752;2023-12-20T13:22:37;8.50;99.90
25871;DHT22;13689;48.590;7.752;2023-12-20T13:25:03;8.40;99.90
25871;DHT22;13689;48.590;7.752;2023-12-20T13:27:28;8.40;99.90
25871;DHT22;13689;48.590;7.752;2023-12-20T13:29:54;8.40;99.90
25871;DHT22;13689;48.590;7.752;2023-12-20T13:32:19;8.40;99.90
25871;DHT22;13689;48.590;7.752;2023-12-20T13:34:45;8.40;99.90
25871;DHT22;13689;48.590;7.752;2023-12-20T13:37:11;8.40;99.90
25871;DHT22;13689;48.590;7.752;2023-12-20T13:39:36;8.40;99.90
25871;DHT22;13689;48.590;7.752;2023-12-20T13:42:02;8.40;99.90
25871;DHT22;13689;48.590;7.752;2023-12-20T13:44:28;8.40;99.90
25871;DHT22;13689;48.590;7.752;2023-12-20T13:46:54;8.40;99.90
25871;DHT22;13689;48.590;7.752;2023-12-20T13:49:20;8.40;99.90
25871;DHT22;13689;48.590;7.752;2023-12-20T13:51:46;8.40;99.90
25871;DHT22;13689;48.590;7.752;2023-12-20T13:54:13;8.40;99.90
25871;DHT22;13689;48.590;7.752;2023-12-20T13:56:38;8.40;99.90
25871;DHT22;13689;48.590;7.752;2023-12-20T13:59:04;8.40;99.90
25871;DHT22;13689;48.590;7.752;2023-12-20T14:01:29;8.40;99.90
25871;DHT22;13689;48.590;7.752;2023-12-20T14:03:55;8.40;99.90
25871;DHT22;13689;48.590;7.752;2023-12-20T14:06:21;8.40;99.90
25871;DHT22;13689;48.590;7.752;2023-12-20T14:08:46;8.40;99.90
25871;DHT22;13689;48.590;7.752;2023-12-20T14:11:13;8.40;99.90
25871;DHT22;13689;48.590;7.752;2023-12-20T14:13:41;8.40;99.90
25871;DHT22;13689;48.590;7.752;2023-12-20T14:16:06;8.40;99.90
25871;DHT22;13689;48.590;7.752;2023-12-20T14:18:32;8.40;99.90
25871;DHT22;13689;48.590;7.752;2023-12-20T14:20:58;8.30;99.90
25871;DHT22;13689;48.590;7.752;2023-12-20T14:23:23;8.30;99.90
25871;DHT22;13689;48.590;7.752;2023-12-20T14:25:49;8.30;99.90
25871;DHT22;13689;48.590;7.752;2023-12-20T14:28:14;8.40;99.90
25871;DHT22;13689;48.590;7.752;2023-12-20T14:30:40;8.30;99.90
25871;DHT22;13689;48.590;7.752;2023-12-20T14:33:06;8.30;99.90
25871;DHT22;13689;48.590;7.752;2023-12-20T14:35:32;8.30;99.90
25871;DHT22;13689;48.590;7.752;2023-12-20T14:37:58;8.30;99.90
25871;DHT22;13689;48.590;7.752;2023-12-20T14:40:23;8.30;99.90
25871;DHT22;13689;48.590;7.752;2023-12-20T14:42:49;8.30;99.90
25871;DHT22;13689;48.590;7.752;2023-12-20T14:45:15;8.30;99.90
25871;DHT22;13689;48.590;7.752;2023-12-20T14:47:44;8.30;99.90
25871;DHT22;13689;48.590;7.752;2023-12-20T14:50:10;8.30;99.90
25871;DHT22;13689;48.590;7.752;2023-12-20T14:52:43;8.30;99.90
25871;DHT22;13689;48.590;7.752;2023-12-20T14:55:10;8.30;99.90
25871;DHT22;13689;48.590;7.752;2023-12-20T14:57:36;8.30;99.90
25871;DHT22;13689;48.590;7.752;2023-12-20T15:00:01;8.30;99.90
25871;DHT22;13689;48.590;7.752;2023-12-20T15:02:27;8.30;99.90
25871;DHT22;13689;48.590;7.752;2023-12-20T15:04:53;8.30;99.90
25871;DHT22;13689;48.590;7.752;2023-12-20T15:07:19;8.30;99.90
25871;DHT22;13689;48.590;7.752;2023-12-20T15:09:45;8.30;99.90
25871;DHT22;13689;48.590;7.752;2023-12-20T15:12:14;8.30;99.90
25871;DHT22;13689;48.590;7.752;2023-12-20T15:14:40;8.30;99.90
25871;DHT22;13689;48.590;7.752;2023-12-20T15:17:06;8.30;99.90
25871;DHT22;13689;48.590;7.752;2023-12-20T15:19:31;8.30;99.90
25871;DHT22;13689;48.590;7.752;2023-12-20T15:21:57;8.30;99.90
25871;DHT22;13689;48.590;7.752;2023-12-20T15:24:25;8.20;99.90
25871;DHT22;13689;48.590;7.752;2023-12-20T15:27:02;8.20;99.90
25871;DHT22;13689;48.590;7.752;2023-12-20T15:29:28;8.20;99.90
25871;DHT22;13689;48.590;7.752;2023-12-20T15:31:54;8.20;99.90
25871;DHT22;13689;48.590;7.752;2023-12-20T15:34:19;8.10;99.90
25871;DHT22;13689;48.590;7.752;2023-12-20T15:36:45;8.10;99.90
25871;DHT22;13689;48.590;7.752;2023-12-20T15:39:11;8.10;99.90
25871;DHT22;13689;48.590;7.752;2023-12-20T15:41:39;8.10;99.90
25871;DHT22;13689;48.590;7.752;2023-12-20T15:44:05;8.10;99.90